Historique des stations

Station météo de Graçay

Altitude de la station : 130 m







Données météorologiques pour le 28/09/2022
Date
Heure
Températures Humidité Point de rosée Vitesse
du vent
Direction Rafales Windchill Pression Pluviométrie
Cumul
Date
Heure
Températures Humidité Point de rosée Vitesse
du vent
Direction Rafales Windchill Pression Pluviométrie
Cumul
28/09/2022 11:1513.3 °C94 %12.2 °C3 km/hO32 km/h13.3 1002 hPa6.6 mm
28/09/2022 11:0213.2 °C96 %12.8 °C2 km/hO8 km/h13.3 1002 hPa6.6 mm
28/09/2022 11:0013.2 °C96 %12.8 °C2 km/hO32 km/h13.3 1002 hPa6.6 mm
28/09/2022 10:4712.9 °C95 %12.2 °C3 km/hO10 km/h12.8 1002 hPa6.6 mm
28/09/2022 10:4512.9 °C95 %12.2 °C3 km/hNO32 km/h12.8 1002 hPa6.6 mm
28/09/2022 10:3212.9 °C95 %12.2 °C3 km/hO10 km/h12.8 1002 hPa6.6 mm
28/09/2022 10:3012.9 °C95 %12.2 °C8 km/hNO32 km/h12.2 1002 hPa6.6 mm
28/09/2022 10:1712.9 °C95 %12.2 °C6 km/hONO8 km/h12.8 1001 hPa6.6 mm
28/09/2022 10:1512.9 °C96 %12.2 °C3 km/hONO32 km/h12.8 1001 hPa6.6 mm
28/09/2022 10:0212.9 °C96 %12.2 °C6 km/hNO8 km/h12.8 1001 hPa6.6 mm
28/09/2022 10:0012.9 °C96 %12.2 °C5 km/hNO32 km/h12.8 1001 hPa6.6 mm
28/09/2022 09:4812.8 °C96 %12.2 °C2 km/hONO10 km/h12.8 1001 hPa6.6 mm
28/09/2022 09:4512.9 °C96 %12.2 °C5 km/hNO32 km/h12.8 1001 hPa6.6 mm
28/09/2022 09:3612.9 °C96 %12.2 °C3 km/hONO8 km/h12.8 1001 hPa6.6 mm
28/09/2022 09:1512.7 °C96 %12.2 °C2 km/hNO32 km/h12.8 1001 hPa6.6 mm
28/09/2022 09:0012.7 °C95 %11.7 °C2 km/hNO32 km/h12.8 1001 hPa6.4 mm
28/09/2022 08:1614.6 °C95 %13.9 °C16 km/hOSO32 km/h12.8 999 hPa3.4 mm
28/09/2022 07:3014.6 °C95 %13.9 °C10 km/hO32 km/h13.9 1000 hPa2.4 mm
28/09/2022 07:1514.8 °C94 %13.9 °C10 km/hSO32 km/h14.4 1000 hPa2 mm
28/09/2022 07:0314.7 °C94 %13.9 °C8 km/hSO21 km/h15.0 1000 hPa2 mm
28/09/2022 07:0014.7 °C94 %13.9 °C14 km/hOSO32 km/h13.3 1000 hPa2 mm
28/09/2022 06:1614.9 °C94 %13.9 °C11 km/hSO32 km/h14.4 1001 hPa1.8 mm
28/09/2022 06:0314.9 °C93 %13.9 °C18 km/hONO26 km/h12.8 1001 hPa1.8 mm
28/09/2022 06:0114.9 °C93 %13.9 °C14 km/hO32 km/h13.3 1001 hPa1.8 mm
28/09/2022 05:4814.9 °C94 %13.9 °C16 km/hONO27 km/h13.3 1001 hPa1.8 mm
28/09/2022 05:4514.9 °C94 %13.9 °C14 km/hO32 km/h13.3 1001 hPa1.8 mm
28/09/2022 05:3315.0 °C94 %13.9 °C29 km/hONO29 km/h11.7 1000 hPa1.8 mm
28/09/2022 05:3115.0 °C94 %13.9 °C19 km/hSO32 km/h12.8 1000 hPa1.8 mm
28/09/2022 05:1815.1 °C94 %13.9 °C14 km/hOSO26 km/h13.3 1000 hPa1.8 mm
28/09/2022 05:1615.1 °C94 %14.4 °C19 km/hOSO32 km/h12.8 1000 hPa1.8 mm
28/09/2022 05:0315.3 °C93 %14.4 °C13 km/hOSO31 km/h14.4 1000 hPa1.8 mm
28/09/2022 05:0115.3 °C93 %14.4 °C19 km/hOSO32 km/h13.3 1000 hPa1.8 mm
28/09/2022 04:4815.4 °C93 %14.4 °C21 km/hO27 km/h13.3 1000 hPa1.6 mm
28/09/2022 04:4615.4 °C93 %14.4 °C18 km/hOSO32 km/h13.9 1000 hPa1.6 mm
28/09/2022 04:3315.5 °C93 %14.4 °C11 km/hSO27 km/h15.0 1000 hPa1.4 mm
28/09/2022 04:3115.6 °C93 %14.4 °C13 km/hO32 km/h14.4 1000 hPa1.4 mm
28/09/2022 04:1815.6 °C93 %14.4 °C18 km/hO26 km/h13.9 1001 hPa1.4 mm
28/09/2022 04:1615.6 °C93 %14.4 °C13 km/hO32 km/h14.4 1001 hPa1.4 mm
28/09/2022 04:0315.7 °C93 %14.4 °C19 km/hSO27 km/h13.3 1001 hPa1.4 mm
28/09/2022 04:0115.7 °C93 %14.4 °C6 km/hONO32 km/h15.6 1001 hPa1.4 mm
28/09/2022 03:4715.8 °C92 %14.4 °C14 km/hO32 km/h14.4 1001 hPa1.4 mm
28/09/2022 03:4515.8 °C92 %14.4 °C13 km/hO32 km/h14.4 1001 hPa1.4 mm
28/09/2022 03:3215.7 °C92 %14.4 °C10 km/hO23 km/h15.0 1001 hPa1.4 mm
28/09/2022 03:3015.7 °C93 %14.4 °C14 km/hO31 km/h14.4 1001 hPa1.4 mm
28/09/2022 03:1815.8 °C92 %14.4 °C13 km/hONO29 km/h14.4 1001 hPa1.4 mm
28/09/2022 03:1515.7 °C92 %14.4 °C8 km/hOSO31 km/h15.6 1001 hPa1.4 mm
28/09/2022 03:0415.7 °C93 %14.4 °C18 km/hO29 km/h13.9 1001 hPa1.4 mm
28/09/2022 03:0015.7 °C93 %14.4 °C13 km/hONO31 km/h14.4 1001 hPa1.2 mm
28/09/2022 02:5015.7 °C93 %14.4 °C11 km/hOSO27 km/h15.0 1001 hPa1.2 mm
28/09/2022 02:4515.7 °C93 %14.4 °C14 km/hO31 km/h14.4 1001 hPa1.2 mm
28/09/2022 02:3515.7 °C93 %14.4 °C16 km/hOSO29 km/h13.9 1001 hPa1 mm
28/09/2022 02:3015.7 °C93 %14.4 °C24 km/hOSO31 km/h12.8 1001 hPa0.8 mm
28/09/2022 02:2015.8 °C93 %14.4 °C13 km/hO31 km/h14.4 1002 hPa0.8 mm
28/09/2022 02:1515.8 °C93 %14.4 °C18 km/hOSO31 km/h13.9 1002 hPa0.6 mm
28/09/2022 02:0515.7 °C93 %14.4 °C14 km/hO26 km/h14.4 1002 hPa0.4 mm
28/09/2022 02:0015.7 °C93 %14.4 °C19 km/hONO31 km/h13.3 1002 hPa0.4 mm
28/09/2022 01:5015.8 °C93 %14.4 °C13 km/hSO27 km/h14.4 1002 hPa0.4 mm
28/09/2022 01:4515.8 °C93 %15.0 °C16 km/hO31 km/h14.4 1002 hPa0.2 mm
28/09/2022 01:3215.7 °C93 %14.4 °C19 km/hOSO24 km/h13.3 1002 hPa0.2 mm
28/09/2022 01:3015.7 °C93 %14.4 °C19 km/hO27 km/h13.3 1002 hPa0.2 mm
28/09/2022 01:1715.6 °C94 %14.4 °C18 km/hOSO27 km/h13.9 1002 hPa-
28/09/2022 01:1515.7 °C94 %15.0 °C11 km/hSSO27 km/h15.0 1002 hPa-
28/09/2022 01:0215.6 °C94 %14.4 °C13 km/hSO26 km/h14.4 1002 hPa-
28/09/2022 01:0015.6 °C94 %14.4 °C10 km/hOSO26 km/h15.0 1003 hPa-
28/09/2022 00:4715.6 °C94 %14.4 °C14 km/hOSO24 km/h14.4 1003 hPa-
28/09/2022 00:4515.6 °C94 %14.4 °C14 km/hOSO26 km/h14.4 1003 hPa-
28/09/2022 00:3615.6 °C94 %14.4 °C23 km/hSO26 km/h12.8 1003 hPa-
28/09/2022 00:3115.6 °C94 %14.4 °C11 km/hOSO26 km/h15.0 1003 hPa-
28/09/2022 00:2215.6 °C94 %14.4 °C10 km/hO24 km/h15.0 1003 hPa-
28/09/2022 00:1615.6 °C94 %14.4 °C13 km/hSSO24 km/h14.4 1003 hPa-
28/09/2022 00:0715.5 °C94 %14.4 °C10 km/hSSO23 km/h15.0 1003 hPa-
28/09/2022 00:0115.6 °C94 %14.4 °C13 km/hSO19 km/h14.4 1003 hPa-


Minima :

Température : 12.7 °C
Humidité : 92 %
Point de rosée : 11.7 °C
Vent moyen : 2 km/h
Windchill : 11.7
Pression atm. : 999 hPa
Maxima :

Température : 15.8 °C
Humidité : 96 %
Point de rosée : 15.0 °C
Vent moyen : 29 km/h
Windchill : 15.6
Pression atm. : 1003 hPa
Rafales max : 32 km/h
Cumul de pluie sur 24H : 6.6 mm

Graçay est une commune du département Cher (18).
La station météorologique du réseau de l'association la plus proche de Graçay est celle de Luçay-le-Libre



Icône Facebook Association Météo Centre Icône Twitter Association Météo Centre Icône Chaîne Youtube Association Météo Centre Icône contact Association Météo Centre Icône Insta Association Météo Centre